King City, Missouri
Current Conditions -  °F | °C
As of 12:53 AM on Saturday 29 Nov 2014 (Local Time) from KSTJ Reporting Station
Clear Clear  
Wind Chill:   Ceiling: Unl
Heat Index:   Visibility: 10mi
Dew Point:   Wind: 9mph
Humidity: 66%   Direction: 220°SW
Pressure: 29.67"   Gusts: NA
Location:  40.05°N, 94.52°W
Report Text: KSTJ 290653Z AUTO 22008KT 10SM CLR 09/03 A2967 RMK AO2 SLP047 T00940033
Loading
Personal Weather Stations






























Interactive Weather Map New forecast layout! Learn more

10-Day Weather Forecast

Advertisements
Track Severe Weather on mobile